Time;durP1;ratioP1;P1;durP2;ratioP2;P2;SDS_P1;SDS_P2;PMS_P1;PMS_P2;Temp;Humidity;BMP_temperature;BMP_pressure;BME280_temperature;BME280_humidity;BME280_pressure;Samples;Min_cycle;Max_cycle;Signal;HPM_P1;HPM_P2
2023/01/30 00:02:11;;;;;;;9.50;8.50;;;;;;;-0.89;69.29;99706.23;105531;1261;72023;-75
2023/01/30 00:04:41;;;;;;;9.90;8.00;;;;;;;-0.87;69.34;99704.67;105671;1257;61280;-77
2023/01/30 00:07:10;;;;;;;10.90;8.30;;;;;;;-0.86;69.41;99709.37;105587;1258;61557;-76
2023/01/30 00:09:42;;;;;;;11.50;8.60;;;;;;;-0.87;69.31;99712.73;105660;1259;73750;-79
2023/01/30 00:12:12;;;;;;;11.30;10.00;;;;;;;-0.86;69.39;99710.17;105485;1258;67450;-76
2023/01/30 00:14:41;;;;;;;12.30;9.00;;;;;;;-0.86;69.64;99705.98;105401;1258;73946;-78
2023/01/30 00:17:10;;;;;;;10.30;8.80;;;;;;;-0.85;69.51;99703.52;105464;1263;59842;-78
2023/01/30 00:19:41;;;;;;;10.80;8.50;;;;;;;-0.80;69.71;99700.13;105470;1258;61867;-75
2023/01/30 00:22:09;;;;;;;12.40;8.90;;;;;;;-0.71;69.80;99693.46;105430;1261;73789;-76
2023/01/30 00:24:42;;;;;;;12.30;8.90;;;;;;;-0.65;69.42;99691.42;105376;1258;69216;-77
2023/01/30 00:27:11;;;;;;;10.70;8.30;;;;;;;-0.61;69.55;99688.55;105619;1258;73628;-75
2023/01/30 00:29:39;;;;;;;11.30;8.60;;;;;;;-0.56;69.29;99682.20;105544;1258;60863;-74
2023/01/30 00:32:12;;;;;;;15.40;10.90;;;;;;;-0.55;68.87;99680.77;105544;1258;60733;-78
2023/01/30 00:34:40;;;;;;;10.00;7.30;;;;;;;-0.55;68.71;99681.33;105511;1261;73908;-75
2023/01/30 00:37:08;;;;;;;12.80;8.30;;;;;;;-0.58;68.77;99684.34;105677;1259;68843;-74
2023/01/30 00:39:36;;;;;;;11.00;8.50;;;;;;;-0.62;68.73;99675.29;105599;1259;71880;-74
2023/01/30 00:47:40;;;;;;;12.20;8.80;;;;;;;-0.70;68.90;99669.70;105507;1260;74290;-75
2023/01/30 00:50:08;;;;;;;13.20;8.80;;;;;;;-0.72;69.00;99673.66;105429;1259;68612;-75
2023/01/30 00:52:37;;;;;;;10.80;7.90;;;;;;;-0.74;69.09;99670.09;105488;1257;73087;-77
2023/01/30 00:55:06;;;;;;;12.80;9.80;;;;;;;-0.76;69.06;99663.10;105609;1258;60915;-75
2023/01/30 00:57:34;;;;;;;14.00;9.80;;;;;;;-0.80;69.21;99654.02;105537;1261;59885;-74
2023/01/30 01:00:04;;;;;;;11.20;10.00;;;;;;;-0.83;69.31;99654.34;105558;1259;73799;-78
2023/01/30 01:02:32;;;;;;;10.00;7.70;;;;;;;-0.84;69.49;99648.30;105597;1259;67808;-75
2023/01/30 01:05:00;;;;;;;13.40;9.90;;;;;;;-0.84;69.55;99639.14;105659;1259;74484;-74
2023/01/30 01:07:29;;;;;;;9.90;8.30;;;;;;;-0.88;69.69;99635.02;105662;1259;61726;-73
2023/01/30 01:09:59;;;;;;;10.60;7.40;;;;;;;-0.91;69.82;99639.09;105719;1259;61755;-75
2023/01/30 01:12:27;;;;;;;9.90;7.70;;;;;;;-0.90;69.97;99630.90;106233;1264;75135;-75
2023/01/30 01:14:56;;;;;;;12.20;8.20;;;;;;;-0.90;70.08;99628.06;105857;1258;68829;-74
2023/01/30 01:17:24;;;;;;;12.20;7.80;;;;;;;-0.88;70.22;99630.86;105879;1263;73118;-74
2023/01/30 01:19:52;;;;;;;9.30;7.40;;;;;;;-0.88;70.40;99628.73;105439;1259;59982;-75
2023/01/30 01:22:20;;;;;;;14.50;9.30;;;;;;;-0.89;70.28;99631.23;105730;1259;59365;-74
2023/01/30 01:24:48;;;;;;;11.50;8.30;;;;;;;-0.87;70.34;99626.62;105690;1259;73768;-75
2023/01/30 01:27:18;;;;;;;11.00;8.10;;;;;;;-0.83;70.37;99619.73;105645;1261;68637;-75
2023/01/30 01:29:46;;;;;;;10.70;8.30;;;;;;;-0.79;70.44;99620.13;104781;1257;1002916;-73
2023/01/30 01:32:15;;;;;;;10.40;7.80;;;;;;;-0.71;70.61;99615.86;105483;1262;60311;-73
2023/01/30 01:34:44;;;;;;;11.10;8.20;;;;;;;-0.63;70.52;99615.88;105465;1259;61865;-75
2023/01/30 01:37:12;;;;;;;12.40;8.20;;;;;;;-0.58;70.32;99615.71;105396;1263;72589;-76
2023/01/30 01:42:33;;;;;;;10.80;8.20;;;;;;;-0.53;69.95;99613.10;105629;1259;73581;-75
2023/01/30 01:45:10;;;;;;;10.30;8.60;;;;;;;-0.53;69.89;99615.70;105518;1258;59822;-76
2023/01/30 01:47:52;;;;;;;9.10;6.70;;;;;;;-0.54;69.78;99621.73;105433;1258;61426;-73
2023/01/30 01:50:24;;;;;;;9.90;7.90;;;;;;;-0.58;69.75;99620.45;105369;1264;73942;-76
2023/01/30 04:02:42;;;;;;;13.70;10.80;;;;;;;-1.38;76.03;99484.45;102101;1299;639884;-81
2023/01/30 04:05:13;;;;;;;16.50;11.70;;;;;;;-1.37;75.98;99478.92;104862;1275;63586;-81
2023/01/30 04:07:43;;;;;;;13.30;8.50;;;;;;;-1.33;76.12;99478.42;105046;1269;60879;-81
2023/01/30 04:10:14;;;;;;;12.10;9.10;;;;;;;-1.26;76.22;99478.33;105128;1267;71844;-82
2023/01/30 04:12:41;;;;;;;10.70;8.00;;;;;;;-1.19;76.04;99478.00;105140;1268;68662;-81
2023/01/30 04:15:09;;;;;;;11.00;9.10;;;;;;;-1.11;75.85;99480.55;104694;1262;562531;-78
2023/01/30 04:17:54;;;;;;;11.30;8.30;;;;;;;-1.05;75.68;99474.08;105148;1266;60677;-81
2023/01/30 04:20:42;;;;;;;15.40;9.80;;;;;;;-0.99;75.56;99472.85;105262;1261;60992;-78
2023/01/30 04:23:09;;;;;;;12.30;9.70;;;;;;;-0.95;75.51;99474.98;105323;1266;71779;-80
2023/01/30 04:25:36;;;;;;;15.20;8.70;;;;;;;-0.92;75.56;99475.92;105504;1267;67498;-80
2023/01/30 04:28:06;;;;;;;12.90;9.40;;;;;;;-0.90;75.28;99479.55;105301;1261;72957;-80
2023/01/30 04:30:36;;;;;;;14.30;8.50;;;;;;;-0.90;75.38;99475.52;105392;1264;61042;-79
2023/01/30 04:33:38;;;;;;;10.30;9.20;;;;;;;-0.92;75.25;99476.90;105190;1261;61180;-79
2023/01/30 04:36:07;;;;;;;12.40;9.60;;;;;;;-0.93;75.34;99478.80;104998;1262;73820;-79
2023/01/30 04:38:35;;;;;;;10.30;7.90;;;;;;;-0.95;75.47;99474.61;105492;1264;66756;-78
2023/01/30 04:41:03;;;;;;;11.10;9.10;;;;;;;-0.95;75.50;99473.39;105204;1261;73714;-78
2023/01/30 04:43:31;;;;;;;16.60;10.40;;;;;;;-0.94;75.56;99474.64;105403;1261;62854;-78
2023/01/30 04:46:21;;;;;;;13.20;8.60;;;;;;;-0.89;75.73;99469.71;105287;1260;61143;-76
2023/01/30 04:48:48;;;;;;;12.10;8.40;;;;;;;-0.86;75.56;99468.19;105352;1267;74015;-78
2023/01/30 04:51:15;;;;;;;11.10;8.00;;;;;;;-0.81;75.89;99462.45;108024;1260;67426;-78
2023/01/30 04:53:42;;;;;;;13.00;9.20;;;;;;;-0.77;75.78;99460.20;108041;1260;72302;-79
2023/01/30 04:56:10;;;;;;;10.20;8.10;;;;;;;-0.70;75.77;99465.90;106284;1266;59764;-79
2023/01/30 04:58:37;;;;;;;13.10;9.20;;;;;;;-0.66;75.65;99463.07;105449;1263;61255;-82
2023/01/30 05:01:24;;;;;;;14.40;10.10;;;;;;;-0.64;75.77;99459.29;104833;1267;73335;-80
2023/01/30 05:03:54;;;;;;;15.70;9.80;;;;;;;-0.66;75.58;99456.54;105382;1266;68958;-79
2023/01/30 05:06:21;;;;;;;12.80;8.60;;;;;;;-0.71;75.66;99451.73;105637;1267;73938;-79
2023/01/30 05:08:52;;;;;;;11.80;8.70;;;;;;;-0.75;75.96;99448.73;105276;1263;60376;-79
2023/01/30 05:11:19;;;;;;;11.00;8.90;;;;;;;-0.77;76.17;99445.79;105077;1266;59740;-76
2023/01/30 05:13:46;;;;;;;12.00;9.10;;;;;;;-0.77;76.41;99442.21;105450;1268;72370;-79
2023/01/30 05:16:13;;;;;;;11.40;8.90;;;;;;;-0.78;76.61;99439.00;105484;1266;68786;-78
2023/01/30 05:18:41;;;;;;;12.30;9.50;;;;;;;-0.78;77.02;99441.34;105507;1267;73798;-80
2023/01/30 05:21:13;;;;;;;10.40;9.10;;;;;;;-0.77;77.28;99435.11;105268;1266;62564;-82
2023/01/30 05:23:40;;;;;;;15.60;11.80;;;;;;;-0.77;77.77;99437.55;105306;1263;59666;-80
2023/01/30 05:26:07;;;;;;;10.20;8.10;;;;;;;-0.76;77.82;99431.55;105519;1264;73020;-77
2023/01/30 05:28:34;;;;;;;13.10;10.60;;;;;;;-0.72;78.14;99431.67;105536;1263;69636;-81
2023/01/30 05:31:06;;;;;;;13.60;10.10;;;;;;;-0.69;78.33;99428.07;105563;1257;74036;-79
2023/01/30 05:33:33;;;;;;;12.40;10.90;;;;;;;-0.66;78.29;99434.95;105751;1257;60381;-79
2023/01/30 05:36:00;;;;;;;12.40;10.40;;;;;;;-0.67;78.40;99429.63;105684;1258;59835;-79
2023/01/30 05:38:28;;;;;;;11.60;9.40;;;;;;;-0.67;78.46;99426.84;105658;1263;74522;-77
2023/01/30 05:41:00;;;;;;;16.40;12.50;;;;;;;-0.69;78.52;99421.03;105664;1257;68645;-76
2023/01/30 05:43:26;;;;;;;17.10;12.80;;;;;;;-0.72;78.58;99413.85;105720;1257;73252;-75
2023/01/30 05:45:56;;;;;;;19.00;15.00;;;;;;;-0.75;78.82;99408.53;105589;1257;61262;-79
2023/01/30 05:48:22;;;;;;;23.80;15.30;;;;;;;-0.76;78.74;99411.55;105555;1262;60962;-74
2023/01/30 05:50:54;;;;;;;20.60;14.60;;;;;;;-0.77;79.04;99402.98;105651;1257;72314;-78
2023/01/30 05:53:25;;;;;;;16.40;13.20;;;;;;;-0.78;79.14;99400.92;105732;1261;68164;-79
2023/01/30 05:55:56;;;;;;;21.60;12.60;;;;;;;-0.81;79.29;99393.73;105780;1262;73093;-77
2023/01/30 05:58:23;;;;;;;18.40;14.50;;;;;;;-0.87;79.62;99398.39;105659;1261;59773;-77
2023/01/30 06:00:50;;;;;;;20.70;14.10;;;;;;;-0.85;79.72;99392.92;105707;1257;60639;-78
2023/01/30 06:03:41;;;;;;;14.30;11.10;;;;;;;-0.78;79.96;99386.79;105556;1261;74462;-80
2023/01/30 06:07:22;;;;;;;18.10;12.10;;;;;;;-0.74;80.03;99393.70;105775;1256;66630;-80
2023/01/30 06:09:50;;;;;;;15.50;12.90;;;;;;;-0.75;80.09;99391.11;105795;1260;72284;-79
2023/01/30 06:12:19;;;;;;;15.10;12.90;;;;;;;-0.78;80.13;99391.31;105719;1257;61439;-81
2023/01/30 06:14:45;;;;;;;15.80;11.40;;;;;;;-0.78;80.16;99387.95;105498;1257;59703;-81
2023/01/30 06:17:13;;;;;;;13.20;11.90;;;;;;;-0.79;80.09;99387.80;105702;1263;73926;-78
2023/01/30 06:19:40;;;;;;;26.00;12.90;;;;;;;-0.83;80.13;99383.20;105873;1257;67846;-78
2023/01/30 06:22:07;;;;;;;18.00;11.40;;;;;;;-0.81;80.47;99374.66;105812;1260;74756;-77
2023/01/30 06:24:33;;;;;;;14.90;10.20;;;;;;;-0.77;80.24;99375.69;105803;1261;60938;-75
2023/01/30 06:27:00;;;;;;;16.90;12.70;;;;;;;-0.75;80.19;99372.98;105837;1257;61702;-77
2023/01/30 06:29:29;;;;;;;20.10;12.60;;;;;;;-0.74;80.12;99373.93;106547;1255;74585;-78
2023/01/30 06:31:56;;;;;;;17.10;12.70;;;;;;;-0.73;79.89;99370.63;107466;1258;66262;-76
2023/01/30 06:34:23;;;;;;;16.50;12.80;;;;;;;-0.70;79.99;99364.84;105596;1262;72819;-74
2023/01/30 06:36:50;;;;;;;21.10;14.10;;;;;;;-0.68;79.80;99364.80;105734;1257;59637;-76
2023/01/30 06:39:17;;;;;;;20.10;14.60;;;;;;;-0.69;79.66;99360.70;105743;1257;60910;-77
2023/01/30 06:41:44;;;;;;;20.60;14.60;;;;;;;-0.70;79.74;99361.14;105833;1257;72973;-77
2023/01/30 06:44:11;;;;;;;24.70;16.50;;;;;;;-0.71;79.61;99359.46;104375;1258;1004015;-78
2023/01/30 06:46:39;;;;;;;24.00;17.10;;;;;;;-0.72;79.61;99355.77;107040;1257;72750;-77
2023/01/30 06:49:05;;;;;;;26.30;18.50;;;;;;;-0.73;79.75;99359.91;108850;1255;60324;-81
2023/01/30 06:51:32;;;;;;;22.50;16.80;;;;;;;-0.72;79.97;99355.74;108892;1257;59825;-77
2023/01/30 06:53:59;;;;;;;20.70;15.90;;;;;;;-0.69;80.04;99352.59;108865;1255;72079;-74
2023/01/30 06:56:26;;;;;;;22.30;15.70;;;;;;;-0.64;79.95;99349.52;107880;1257;68394;-78
2023/01/30 06:58:54;;;;;;;18.60;15.00;;;;;;;-0.63;79.90;99343.59;107673;1257;72974;-76
2023/01/30 07:01:20;;;;;;;18.50;13.90;;;;;;;-0.63;80.14;99343.27;107817;1257;61235;-79
2023/01/30 07:03:47;;;;;;;22.00;13.40;;;;;;;-0.60;80.14;99340.14;106453;1259;59846;-77
2023/01/30 07:06:14;;;;;;;20.50;16.80;;;;;;;-0.59;80.07;99345.31;105730;1257;71958;-77
2023/01/30 07:08:43;;;;;;;19.00;14.40;;;;;;;-0.61;80.11;99344.70;105640;1257;69430;-77
2023/01/30 07:11:09;;;;;;;19.60;14.30;;;;;;;-0.61;80.19;99342.44;105614;1258;72964;-75
2023/01/30 07:13:36;;;;;;;16.90;13.60;;;;;;;-0.64;80.26;99346.88;105721;1263;59678;-74
2023/01/30 07:16:03;;;;;;;19.60;13.70;;;;;;;-0.68;80.56;99343.46;105893;1259;59888;-73
2023/01/30 07:18:31;;;;;;;26.90;16.10;;;;;;;-0.71;80.98;99342.27;105816;1260;74824;-76
2023/01/30 07:20:58;;;;;;;16.50;14.00;;;;;;;-0.72;81.04;99347.30;105781;1257;67453;-76
2023/01/30 07:23:25;;;;;;;17.30;13.30;;;;;;;-0.69;81.27;99344.66;105855;1256;73546;-78
2023/01/30 07:25:52;;;;;;;14.60;12.00;;;;;;;-0.64;81.35;99342.31;105840;1254;59672;-79
2023/01/30 07:28:19;;;;;;;18.60;13.70;;;;;;;-0.62;81.40;99341.61;105787;1260;62219;-80
2023/01/30 07:30:46;;;;;;;17.70;15.00;;;;;;;-0.58;81.47;99335.42;105614;1260;73859;-78
2023/01/30 07:33:13;;;;;;;16.50;13.30;;;;;;;-0.54;81.52;99327.88;105525;1262;67105;-78
2023/01/30 07:35:40;;;;;;;17.30;13.20;;;;;;;-0.54;81.46;99331.10;105807;1255;73431;-77
2023/01/30 07:38:07;;;;;;;22.50;14.50;;;;;;;-0.55;81.70;99323.54;105815;1255;59938;-80
2023/01/30 07:40:33;;;;;;;19.70;13.20;;;;;;;-0.57;81.77;99325.38;105768;1256;60413;-76
2023/01/30 07:43:04;;;;;;;17.00;12.50;;;;;;;-0.58;81.80;99320.04;105821;1259;74547;-75
2023/01/30 07:45:39;;;;;;;24.30;12.70;;;;;;;-0.58;82.04;99309.89;105707;1260;68587;-78
2023/01/30 07:48:06;;;;;;;20.80;11.40;;;;;;;-0.56;82.33;99304.13;105898;1254;73365;-81
2023/01/30 07:50:36;;;;;;;16.70;12.60;;;;;;;-0.51;82.46;99308.13;105829;1259;60813;-80
2023/01/30 07:53:04;;;;;;;16.70;12.10;;;;;;;-0.47;82.43;99305.48;105829;1254;62168;-79
2023/01/30 07:55:31;;;;;;;14.90;11.40;;;;;;;-0.42;82.34;99295.13;105859;1254;72545;-75
2023/01/30 07:57:59;;;;;;;19.10;12.80;;;;;;;-0.37;82.38;99291.96;105713;1254;70073;-79
2023/01/30 08:00:26;;;;;;;18.00;13.80;;;;;;;-0.35;82.37;99289.02;105789;1254;72733;-75
2023/01/30 08:02:52;;;;;;;16.20;12.40;;;;;;;-0.33;82.41;99280.86;105775;1254;59657;-77
2023/01/30 08:05:19;;;;;;;19.10;13.90;;;;;;;-0.32;82.38;99277.25;105720;1255;59929;-82
2023/01/30 08:07:47;;;;;;;15.60;10.50;;;;;;;-0.32;82.40;99274.61;105667;1254;72803;-80
2023/01/30 08:10:16;;;;;;;20.20;13.00;;;;;;;-0.37;82.63;99264.81;105656;1261;67796;-79
2023/01/30 08:12:45;;;;;;;17.00;12.60;;;;;;;-0.37;82.74;99265.42;105718;1261;74534;-74
2023/01/30 08:15:12;;;;;;;16.90;14.90;;;;;;;-0.34;82.99;99269.80;105810;1254;62036;-76
2023/01/30 08:17:39;;;;;;;15.50;11.80;;;;;;;-0.31;83.04;99266.38;105759;1254;61047;-73
2023/01/30 08:20:07;;;;;;;18.60;11.90;;;;;;;-0.29;83.13;99259.20;105639;1260;75655;-75
2023/01/30 08:22:34;;;;;;;14.00;10.80;;;;;;;-0.26;83.07;99260.81;105690;1254;68908;-77
2023/01/30 08:25:01;;;;;;;18.40;11.90;;;;;;;-0.25;83.06;99255.73;105731;1259;73955;-76
2023/01/30 08:27:28;;;;;;;15.50;12.10;;;;;;;-0.27;83.05;99247.99;106035;1259;61220;-73
2023/01/30 08:29:56;;;;;;;18.90;13.50;;;;;;;-0.28;83.12;99242.70;105824;1254;60580;-78
2023/01/30 08:32:22;;;;;;;19.70;12.70;;;;;;;-0.28;83.25;99239.21;105823;1254;73923;-76
2023/01/30 08:34:50;;;;;;;20.60;14.80;;;;;;;-0.30;83.27;99230.49;105676;1259;68311;-73
2023/01/30 08:37:17;;;;;;;17.20;13.20;;;;;;;-0.30;83.60;99230.66;105754;1254;72032;-76
2023/01/30 08:39:44;;;;;;;15.00;12.30;;;;;;;-0.31;83.46;99223.90;105862;1260;60457;-75
2023/01/30 08:42:12;;;;;;;18.50;12.00;;;;;;;-0.29;83.76;99220.63;105864;1259;61256;-74
2023/01/30 08:44:38;;;;;;;15.90;12.60;;;;;;;-0.26;83.70;99225.16;105865;1254;72651;-73
2023/01/30 08:47:05;;;;;;;15.20;12.10;;;;;;;-0.24;83.76;99224.92;105801;1259;68730;-75
2023/01/30 08:49:36;;;;;;;22.10;12.00;;;;;;;-0.21;83.63;99225.27;105505;1261;73485;-72
2023/01/30 08:52:02;;;;;;;15.80;12.70;;;;;;;-0.17;83.40;99215.83;105625;1260;60447;-73
2023/01/30 08:54:29;;;;;;;19.10;11.90;;;;;;;-0.17;83.27;99204.98;105784;1254;60614;-73
2023/01/30 08:56:59;;;;;;;16.90;12.30;;;;;;;-0.14;83.36;99206.66;105821;1255;73362;-76
2023/01/30 08:59:27;;;;;;;17.00;13.10;;;;;;;-0.12;83.42;99207.94;105758;1254;69698;-74
2023/01/30 09:01:54;;;;;;;17.80;13.70;;;;;;;-0.11;83.24;99204.21;105773;1254;73653;-76
2023/01/30 09:04:23;;;;;;;11.90;10.60;;;;;;;-0.12;83.09;99198.39;105749;1254;61856;-75
2023/01/30 09:06:51;;;;;;;20.30;12.10;;;;;;;-0.13;83.19;99195.69;105634;1254;61088;-74
2023/01/30 09:09:20;;;;;;;15.90;12.00;;;;;;;-0.10;83.03;99186.73;105848;1260;73923;-73
2023/01/30 09:11:47;;;;;;;14.50;11.50;;;;;;;-0.08;83.07;99188.41;105600;1260;67579;-72
2023/01/30 09:14:18;;;;;;;12.20;10.50;;;;;;;-0.05;82.93;99172.30;105825;1254;70971;-74
2023/01/30 09:16:46;;;;;;;17.30;11.70;;;;;;;-0.01;82.80;99171.01;105736;1254;60456;-75
2023/01/30 09:19:13;;;;;;;17.70;12.80;;;;;;;0.03;82.79;99167.27;105817;1259;60598;-73
2023/01/30 09:21:40;;;;;;;23.40;11.10;;;;;;;0.04;82.67;99163.84;105801;1254;73683;-77
2023/01/30 09:24:07;;;;;;;15.30;12.00;;;;;;;0.04;82.68;99160.42;105893;1254;68234;-73
2023/01/30 09:26:33;;;;;;;12.80;11.40;;;;;;;0.04;82.55;99152.30;105887;1254;71658;-75
2023/01/30 09:29:00;;;;;;;14.10;12.30;;;;;;;0.05;82.43;99153.84;105774;1258;60473;-76
2023/01/30 09:31:27;;;;;;;16.00;12.40;;;;;;;0.05;82.60;99150.79;105916;1260;60388;-72
2023/01/30 09:33:54;;;;;;;13.70;10.90;;;;;;;0.09;82.49;99147.95;105696;1254;72998;-76
2023/01/30 09:36:21;;;;;;;15.50;11.90;;;;;;;0.15;82.50;99139.45;105895;1259;67999;-72
2023/01/30 09:38:48;;;;;;;16.20;11.20;;;;;;;0.20;82.21;99138.05;105738;1254;72691;-73
2023/01/30 09:41:57;;;;;;;13.20;10.60;;;;;;;0.25;82.05;99142.19;105885;1257;61136;-74
2023/01/30 09:45:01;;;;;;;11.90;9.70;;;;;;;0.23;80.84;99137.37;105409;1263;60579;-77
2023/01/30 13:47:56;;;;;;;17.10;12.60;;;;;;;-0.07;86.95;98790.38;102391;1294;600943;-73
2023/01/30 13:50:33;;;;;;;23.90;18.10;;;;;;;-0.06;86.83;98788.34;105397;1258;62188;-70
2023/01/30 13:53:17;;;;;;;18.60;13.70;;;;;;;-0.02;86.74;98769.64;105256;1258;60033;-71
2023/01/30 13:55:47;;;;;;;13.30;10.40;;;;;;;0.05;86.52;98760.84;105205;1262;73057;-73
2023/01/30 13:58:49;;;;;;;18.30;13.40;;;;;;;0.12;86.19;98761.82;105181;1262;67911;-72
2023/01/30 14:01:18;;;;;;;16.10;12.30;;;;;;;0.19;86.01;98759.85;104745;1257;624367;-71
2023/01/30 14:03:46;;;;;;;14.00;11.10;;;;;;;0.22;85.79;98755.46;105313;1259;59535;-72
2023/01/30 14:06:30;;;;;;;15.60;11.60;;;;;;;0.25;85.68;98757.84;105460;1257;62108;-74
2023/01/30 14:09:00;;;;;;;14.70;12.30;;;;;;;0.26;85.35;98757.35;105306;1261;74010;-73
2023/01/30 14:11:35;;;;;;;18.00;12.80;;;;;;;0.27;85.44;98757.11;105493;1259;67065;-74
2023/01/30 14:14:47;;;;;;;16.70;14.50;;;;;;;0.29;85.23;98751.65;105385;1255;74227;-72
2023/01/30 14:17:16;;;;;;;13.30;11.40;;;;;;;0.36;85.14;98743.21;105525;1258;59962;-77
2023/01/30 14:19:57;;;;;;;13.40;11.40;;;;;;;0.42;84.91;98742.76;105710;1259;59638;-76
2023/01/30 14:22:46;;;;;;;13.10;10.90;;;;;;;0.44;84.34;98734.52;105696;1257;72034;-87
2023/01/30 14:25:29;;;;;;;15.80;11.30;;;;;;;0.44;84.38;98729.23;106163;1255;67804;-85
2023/01/30 14:28:04;;;;;;;16.90;11.90;;;;;;;0.43;84.38;98724.89;106570;1254;72460;-85
2023/01/30 14:30:37;;;;;;;15.90;12.80;;;;;;;0.43;84.36;98726.99;107027;1258;59716;-83
2023/01/30 14:33:20;;;;;;;19.90;13.70;;;;;;;0.42;84.36;98731.41;107344;1255;60195;-85
2023/01/30 14:36:01;;;;;;;14.40;11.40;;;;;;;0.40;84.32;98724.08;107262;1254;72681;-79
2023/01/30 14:38:30;;;;;;;17.00;12.90;;;;;;;0.42;84.27;98720.79;107529;1255;69193;-76
2023/01/30 14:40:59;;;;;;;19.90;15.10;;;;;;;0.42;84.35;98720.95;108256;1256;73492;-78
2023/01/30 14:43:37;;;;;;;24.70;13.90;;;;;;;0.43;84.23;98719.15;109172;1256;59378;-81
2023/01/30 14:46:17;;;;;;;17.30;12.70;;;;;;;0.45;84.29;98714.66;108223;1257;59207;-83
2023/01/30 14:49:03;;;;;;;18.00;13.70;;;;;;;0.47;84.36;98711.94;107593;1259;72881;-72
2023/01/30 14:51:38;;;;;;;15.60;13.50;;;;;;;0.49;84.25;98725.80;105440;1261;68633;-74
2023/01/30 14:54:11;;;;;;;17.30;12.80;;;;;;;0.48;83.91;98721.70;105470;1259;72916;-72
2023/01/30 14:56:55;;;;;;;16.80;13.10;;;;;;;0.44;84.16;98715.12;105548;1257;62570;-73
2023/01/30 14:59:29;;;;;;;15.50;12.80;;;;;;;0.44;84.21;98708.73;105663;1257;62207;-73
2023/01/30 15:02:11;;;;;;;17.70;14.00;;;;;;;0.47;84.21;98705.76;105912;1258;74778;-81
2023/01/30 15:05:05;;;;;;;19.10;12.40;;;;;;;0.49;84.12;98702.44;105478;1258;69275;-75
2023/01/30 15:07:40;;;;;;;22.90;14.90;;;;;;;0.52;84.15;98703.04;106033;1259;73248;-75
2023/01/30 15:10:24;;;;;;;21.00;14.60;;;;;;;0.52;83.99;98706.02;106160;1260;59893;-77
2023/01/30 15:13:12;;;;;;;19.70;15.40;;;;;;;0.47;84.21;98704.73;105766;1257;62235;-73
2023/01/30 15:15:52;;;;;;;22.10;13.50;;;;;;;0.47;84.29;98704.73;105436;1257;71598;-76
2023/01/30 15:19:08;;;;;;;18.50;14.10;;;;;;;0.49;84.14;98701.63;105969;1257;67527;-72
2023/01/30 15:22:08;;;;;;;21.50;14.30;;;;;;;0.53;84.19;98703.33;105425;1259;72285;-74
2023/01/30 15:25:09;;;;;;;20.60;14.30;;;;;;;0.59;84.22;98709.58;105565;1255;59654;-75
2023/01/30 15:27:40;;;;;;;19.40;15.50;;;;;;;0.59;84.05;98699.64;104958;1263;62381;-72
2023/01/30 15:30:33;;;;;;;23.40;14.70;;;;;;;0.54;83.89;98691.89;105517;1259;74906;-80
2023/01/30 15:33:19;;;;;;;15.90;11.70;;;;;;;0.48;84.28;98693.42;105931;1260;68699;-78
2023/01/30 15:35:58;;;;;;;18.90;14.20;;;;;;;0.44;84.37;98687.58;106532;1256;74465;-80
2023/01/30 15:38:33;;;;;;;19.90;14.60;;;;;;;0.42;84.30;98689.63;105813;1257;61860;-77
2023/01/30 15:41:03;;;;;;;18.30;13.40;;;;;;;0.44;84.69;98698.89;106346;1259;61849;-78
2023/01/30 15:44:04;;;;;;;19.40;14.40;;;;;;;0.44;84.71;98697.08;105901;1255;74387;-80
2023/01/30 15:46:40;;;;;;;19.90;13.20;;;;;;;0.48;84.60;98697.52;105839;1257;71341;-78
2023/01/30 15:49:35;;;;;;;20.60;14.30;;;;;;;0.49;84.53;98695.73;105879;1259;72402;-77
2023/01/30 15:52:05;;;;;;;20.90;15.80;;;;;;;0.48;84.56;98691.23;105240;1260;61113;-72
2023/01/30 15:54:34;;;;;;;20.10;14.50;;;;;;;0.46;84.70;98690.05;105269;1263;60117;-72
2023/01/30 15:57:02;;;;;;;16.40;12.90;;;;;;;0.45;84.52;98690.66;105476;1259;73852;-75
2023/01/30 15:59:37;;;;;;;17.10;12.90;;;;;;;0.45;84.75;98690.30;105508;1257;68407;-74
2023/01/30 16:02:24;;;;;;;23.20;15.80;;;;;;;0.48;84.71;98688.48;105811;1256;74048;-77
2023/01/30 16:05:06;;;;;;;17.10;12.40;;;;;;;0.47;84.60;98681.55;109176;1256;60198;-76
2023/01/30 16:07:34;;;;;;;19.70;14.80;;;;;;;0.53;84.62;98692.38;109132;1255;58910;-73
2023/01/30 16:10:02;;;;;;;21.10;14.50;;;;;;;0.53;84.51;98687.63;109157;1257;72742;-73
2023/01/30 16:12:39;;;;;;;18.80;15.00;;;;;;;0.54;84.40;98685.00;109180;1257;67491;-73
2023/01/30 16:15:17;;;;;;;17.40;12.80;;;;;;;0.53;84.32;98692.95;109105;1257;73740;-73
2023/01/30 16:17:54;;;;;;;15.80;12.00;;;;;;;0.50;84.48;98689.05;109122;1256;61677;-77
2023/01/30 16:20:22;;;;;;;13.40;10.80;;;;;;;0.50;84.39;98686.98;109183;1256;61110;-80
2023/01/30 16:22:50;;;;;;;15.20;12.50;;;;;;;0.54;84.56;98686.48;109274;1255;74306;-78
2023/01/30 16:25:22;;;;;;;17.30;12.50;;;;;;;0.54;84.33;98690.83;109112;1256;66060;-78
2023/01/30 16:27:51;;;;;;;16.40;11.50;;;;;;;0.60;84.26;98689.71;109187;1257;73431;-77
2023/01/30 16:30:22;;;;;;;15.20;11.60;;;;;;;0.65;84.07;98690.05;109241;1257;58642;-88
2023/01/30 16:32:54;;;;;;;12.10;10.30;;;;;;;0.67;83.90;98687.02;109159;1257;58798;-73
2023/01/30 16:35:22;;;;;;;14.70;12.30;;;;;;;0.67;83.73;98677.85;109083;1256;72304;-74
2023/01/30 16:37:57;;;;;;;17.50;12.70;;;;;;;0.66;83.50;98675.04;109226;1255;66688;-79
2023/01/30 16:40:32;;;;;;;14.40;10.70;;;;;;;0.64;83.43;98677.64;109348;1257;73741;-75
2023/01/30 16:43:02;;;;;;;11.50;9.10;;;;;;;0.65;83.26;98676.13;109088;1257;61448;-78
2023/01/30 16:45:33;;;;;;;12.10;9.40;;;;;;;0.66;83.45;98672.70;109326;1257;60447;-79
2023/01/30 16:48:31;;;;;;;12.90;10.20;;;;;;;0.71;83.14;98666.99;109345;1256;72997;-83
2023/01/30 16:51:03;;;;;;;12.80;10.30;;;;;;;0.77;83.02;98666.95;109246;1257;66131;-72
2023/01/30 16:54:03;;;;;;;10.70;9.20;;;;;;;0.76;82.86;98671.36;109227;1257;71892;-71
2023/01/30 16:56:32;;;;;;;11.10;8.40;;;;;;;0.73;82.71;98668.55;109106;1259;58710;-71
2023/01/30 16:59:00;;;;;;;13.00;10.90;;;;;;;0.73;82.76;98671.04;109151;1258;59169;-78
2023/01/30 17:01:37;;;;;;;12.20;9.70;;;;;;;0.72;82.57;98669.89;109129;1259;74333;-72
2023/01/30 17:04:06;;;;;;;15.00;10.80;;;;;;;0.70;82.65;98665.94;109042;1260;67745;-77
2023/01/30 17:06:38;;;;;;;13.40;10.70;;;;;;;0.70;82.71;98661.09;109102;1260;72884;-74
2023/01/30 17:09:35;;;;;;;10.70;8.20;;;;;;;0.71;82.68;98659.74;109010;1259;60845;-71
2023/01/30 17:12:37;;;;;;;11.20;8.50;;;;;;;0.73;82.55;98657.43;109147;1259;60575;-72
2023/01/30 17:15:10;;;;;;;11.90;9.80;;;;;;;0.77;82.56;98657.26;109147;1260;73444;-78
2023/01/30 17:17:39;;;;;;;13.40;10.70;;;;;;;0.77;82.27;98659.17;109134;1260;67207;-73
2023/01/30 17:20:11;;;;;;;13.00;10.10;;;;;;;0.77;82.18;98658.59;109049;1259;71973;-79
2023/01/30 17:22:39;;;;;;;15.40;10.80;;;;;;;0.78;82.07;98656.23;109072;1259;58730;-78
2023/01/30 17:25:17;;;;;;;13.10;9.80;;;;;;;0.76;81.91;98651.73;109018;1260;59424;-73
2023/01/30 17:27:46;;;;;;;12.20;9.50;;;;;;;0.75;82.01;98655.81;109203;1257;73084;-74
2023/01/30 17:30:14;;;;;;;12.20;9.90;;;;;;;0.73;82.19;98650.02;109205;1261;67287;-75
2023/01/30 17:32:43;;;;;;;11.60;8.70;;;;;;;0.74;82.27;98655.04;109256;1257;70023;-73
2023/01/30 17:35:11;;;;;;;13.80;9.60;;;;;;;0.76;82.13;98645.87;109191;1257;61546;-74
2023/01/30 17:37:40;;;;;;;18.40;11.00;;;;;;;0.77;82.14;98647.73;109273;1259;60428;-73
2023/01/30 17:40:15;;;;;;;12.70;10.50;;;;;;;0.76;82.09;98633.73;109277;1256;73069;-76
2023/01/30 17:42:47;;;;;;;10.50;9.20;;;;;;;0.77;82.20;98632.42;109157;1257;65729;-81
2023/01/30 17:45:15;;;;;;;14.60;11.10;;;;;;;0.77;81.91;98634.34;109188;1257;72685;-81
2023/01/30 17:47:44;;;;;;;15.50;10.40;;;;;;;0.75;82.02;98638.35;109104;1256;57394;-83
2023/01/30 17:50:12;;;;;;;14.00;10.10;;;;;;;0.73;82.07;98638.48;109042;1257;58986;-82
2023/01/30 17:52:42;;;;;;;15.80;10.50;;;;;;;0.72;82.12;98635.48;109295;1257;71093;-81
2023/01/30 22:12:31;;;;;;;49.20;29.80;;;;;;;-1.58;100.00;98566.38;102341;1298;621604;-71
2023/01/30 22:15:00;;;;;;;52.30;34.50;;;;;;;-1.59;100.00;98568.70;104740;1269;62096;-72